Time;durP1;ratioP1;P1;durP2;ratioP2;P2;SDS_P1;SDS_P2;PMS_P1;PMS_P2;Temp;Humidity;BMP_temperature;BMP_pressure;BME280_temperature;BME280_humidity;BME280_pressure;Samples;Min_cycle;Max_cycle;Signal;HPM_P1;HPM_P2
2024/01/15 00:01:12;;;;;;;3.95;3.53;;;;;;;2.07;56.36;98750.13;4361807;32;32998;-89
2024/01/15 00:03:40;;;;;;;2.58;2.42;;;;;;;2.08;56.20;98741.41;4349079;32;32073;-89
2024/01/15 00:06:09;;;;;;;0.68;0.68;;;;;;;2.14;56.32;98737.81;4371749;32;33104;-89
2024/01/15 00:08:37;;;;;;;2.45;2.25;;;;;;;2.24;56.48;98724.50;4350587;32;33001;-89
2024/01/15 00:11:04;;;;;;;2.58;2.37;;;;;;;2.27;56.04;98724.41;4361420;32;33010;-89
2024/01/15 00:13:32;;;;;;;1.30;1.27;;;;;;;2.36;56.02;98719.84;4346118;32;33122;-88
2024/01/15 00:16:00;;;;;;;1.52;1.35;;;;;;;2.26;56.53;98712.28;4361536;32;33885;-89
2024/01/15 00:18:28;;;;;;;0.90;0.90;;;;;;;2.26;56.50;98703.63;4348981;32;33005;-91
2024/01/15 00:20:56;;;;;;;6.50;2.00;;;;;;;2.29;56.42;98693.13;4361523;32;33895;-91
2024/01/15 00:23:23;;;;;;;3.62;1.67;;;;;;;2.31;56.70;98683.50;4361317;32;32674;-89
2024/01/15 00:25:52;;;;;;;1.25;1.25;;;;;;;2.39;56.37;98675.47;4361332;32;32878;-88
2024/01/15 00:28:19;;;;;;;3.47;2.72;;;;;;;2.36;56.38;98668.59;4355938;32;33036;-89
2024/01/15 00:30:47;;;;;;;0.60;0.60;;;;;;;2.37;56.43;98661.63;4361093;32;33541;-91
2024/01/15 00:33:15;;;;;;;1.90;1.80;;;;;;;2.39;56.04;98662.47;4361333;32;33865;-91
2024/01/15 00:35:43;;;;;;;1.00;0.57;;;;;;;2.31;56.43;98657.44;4360967;32;32621;-93
2024/01/15 00:38:11;;;;;;;3.00;1.10;;;;;;;2.41;56.25;98647.62;4366033;32;33466;-90
2024/01/15 00:40:39;;;;;;;3.05;2.85;;;;;;;2.42;56.15;98655.41;4364025;32;34207;-90
2024/01/15 00:43:07;;;;;;;4.62;4.10;;;;;;;2.41;56.49;98661.50;4352464;32;32939;-90
2024/01/15 00:45:35;;;;;;;3.75;3.45;;;;;;;2.54;56.17;98654.19;4357596;32;33655;-92
2024/01/15 00:48:04;;;;;;;2.80;2.58;;;;;;;2.60;55.42;98664.41;4368168;32;33660;-92
2024/01/15 00:50:32;;;;;;;2.42;2.25;;;;;;;2.56;55.42;98652.37;4365653;32;33645;-92
2024/01/15 00:52:59;;;;;;;2.22;1.85;;;;;;;2.40;56.24;98651.97;4368740;32;32920;-92
2024/01/15 00:55:28;;;;;;;4.25;2.03;;;;;;;2.41;56.27;98640.66;4366632;32;32408;-92
2024/01/15 00:57:56;;;;;;;5.45;4.90;;;;;;;2.50;56.06;98653.41;4367074;32;33796;-92
2024/01/15 01:00:23;;;;;;;1.85;1.75;;;;;;;2.54;55.96;98651.56;4360511;32;32802;-90
2024/01/15 01:02:51;;;;;;;4.12;3.83;;;;;;;2.53;55.56;98644.66;4368080;32;33372;-92
2024/01/15 01:05:19;;;;;;;5.03;4.65;;;;;;;2.60;55.71;98645.31;4367727;32;33806;-93
2024/01/15 01:07:47;;;;;;;1.52;1.45;;;;;;;2.44;56.19;98640.56;4369780;32;34606;-89
2024/01/15 01:10:14;;;;;;;0.60;0.60;;;;;;;2.52;55.74;98642.97;4355251;32;34484;-90
2024/01/15 01:12:42;;;;;;;1.40;1.37;;;;;;;2.52;55.86;98650.78;4370662;32;33938;-90
2024/01/15 01:15:10;;;;;;;4.20;3.72;;;;;;;2.50;55.98;98644.75;4375866;32;32485;-90
2024/01/15 01:17:38;;;;;;;2.62;2.47;;;;;;;2.54;55.85;98643.75;4365675;32;32989;-93
2024/01/15 01:20:09;;;;;;;2.70;2.45;;;;;;;2.34;56.24;98626.12;4362500;32;33062;-92
2024/01/15 01:22:37;;;;;;;2.47;2.08;;;;;;;2.44;55.96;98627.56;4360286;32;31985;-93
2024/01/15 01:25:05;;;;;;;1.52;1.17;;;;;;;2.86;54.41;98634.13;4377507;32;34916;-91
2024/01/15 01:27:33;;;;;;;1.98;1.87;;;;;;;2.36;55.53;98621.69;4352285;32;33315;-93
2024/01/15 01:30:13;;;;;;;3.15;2.95;;;;;;;2.29;56.06;98621.03;4381996;32;32455;-93
2024/01/15 01:33:01;;;;;;;2.40;2.28;;;;;;;2.21;56.22;98617.78;4370586;32;32794;-93
2024/01/15 01:35:48;;;;;;;0.57;0.57;;;;;;;2.32;55.73;98620.06;4388798;32;33341;-93
2024/01/15 01:38:16;;;;;;;0.98;0.98;;;;;;;2.19;56.38;98609.19;4383600;32;33168;-92
2024/01/15 01:40:45;;;;;;;2.03;1.92;;;;;;;2.11;56.63;98607.69;4393146;32;32741;-93
2024/01/15 01:43:13;;;;;;;2.50;2.40;;;;;;;2.34;55.23;98601.81;4389828;32;32631;-89
2024/01/15 01:45:40;;;;;;;2.20;2.10;;;;;;;2.02;56.66;98590.59;4388992;32;32686;-89
2024/01/15 01:48:08;;;;;;;3.15;2.95;;;;;;;1.95;56.86;98583.84;4386723;32;33335;-90
2024/01/15 01:50:36;;;;;;;1.77;1.67;;;;;;;2.02;56.85;98590.59;4390429;32;32645;-90
2024/01/15 01:53:04;;;;;;;1.85;1.75;;;;;;;2.02;56.43;98590.59;4389274;32;33436;-90
2024/01/15 01:55:33;;;;;;;2.20;2.00;;;;;;;2.02;56.29;98575.81;4387420;32;33222;-90
2024/01/15 01:58:02;;;;;;;2.40;2.20;;;;;;;2.12;55.47;98563.38;4384630;32;33935;-90
2024/01/15 02:00:30;;;;;;;2.28;2.17;;;;;;;1.92;56.26;98576.13;4382990;32;33111;-87
2024/01/15 02:02:59;;;;;;;1.42;1.33;;;;;;;1.89;56.44;98568.37;4381591;32;34555;-87
2024/01/15 02:05:26;;;;;;;2.78;2.58;;;;;;;1.86;56.57;98578.91;4378965;32;34389;-90
2024/01/15 02:07:54;;;;;;;3.80;2.45;;;;;;;1.73;56.35;98562.78;4387495;32;33960;-90
2024/01/15 02:10:22;;;;;;;2.45;1.95;;;;;;;1.72;56.68;98563.69;4389286;32;32366;-90
2024/01/15 02:12:50;;;;;;;2.65;2.00;;;;;;;1.75;56.31;98554.00;4388114;32;33340;-90
2024/01/15 02:15:17;;;;;;;3.83;3.40;;;;;;;1.75;56.30;98566.16;4381806;32;32955;-90
2024/01/15 02:18:05;;;;;;;2.55;2.33;;;;;;;1.74;56.17;98578.34;4390932;32;33517;-90
2024/01/15 02:20:33;;;;;;;2.55;2.35;;;;;;;1.61;56.66;98561.34;4387738;32;33390;-90
2024/01/15 02:23:14;;;;;;;4.57;2.33;;;;;;;1.40;57.26;98574.94;4387256;32;33533;-91
2024/01/15 02:25:46;;;;;;;4.47;3.78;;;;;;;1.72;55.98;98548.91;4389003;32;32185;-91
2024/01/15 02:28:15;;;;;;;5.93;5.05;;;;;;;1.49;56.34;98559.09;4384292;32;32761;-91
2024/01/15 02:30:44;;;;;;;2.12;1.83;;;;;;;1.22;57.35;98553.72;4359502;32;33131;-91
2024/01/15 02:33:12;;;;;;;5.68;2.10;;;;;;;1.29;57.28;98544.03;4390122;32;32953;-91
2024/01/15 02:35:40;;;;;;;0.90;0.90;;;;;;;1.28;56.70;98542.28;4369914;32;33678;-91
2024/01/15 02:38:08;;;;;;;3.10;2.85;;;;;;;1.24;57.06;98540.69;4388981;32;34893;-91
2024/01/15 02:40:36;;;;;;;1.15;1.10;;;;;;;1.39;56.61;98536.84;4389992;32;33259;-91
2024/01/15 02:43:04;;;;;;;2.95;2.75;;;;;;;1.33;56.67;98529.16;4389293;32;31348;-90
2024/01/15 02:45:32;;;;;;;4.15;3.85;;;;;;;1.22;56.81;98532.06;4379879;32;32327;-91
2024/01/15 02:47:59;;;;;;;14.20;3.10;;;;;;;1.09;56.96;98521.13;4377193;32;34209;-90
2024/01/15 02:50:27;;;;;;;3.03;2.70;;;;;;;1.23;56.67;98511.22;4386010;32;32715;-90
2024/01/15 02:52:55;;;;;;;3.35;3.15;;;;;;;1.16;56.74;98551.28;4389415;32;32953;-91
2024/01/15 02:55:22;;;;;;;3.15;2.92;;;;;;;1.32;56.52;98554.31;4386604;32;32807;-91
2024/01/15 02:57:50;;;;;;;2.12;2.00;;;;;;;1.01;57.09;98549.06;4391870;32;32568;-91
2024/01/15 03:00:18;;;;;;;1.15;1.15;;;;;;;1.12;57.06;98531.44;4389369;32;33109;-90
2024/01/15 03:02:45;;;;;;;1.55;1.45;;;;;;;1.16;56.64;98532.22;4383303;32;34037;-90
2024/01/15 03:05:15;;;;;;;1.20;1.20;;;;;;;1.20;55.84;98524.31;4368478;32;32361;-91
2024/01/15 03:07:43;;;;;;;1.40;1.30;;;;;;;0.96;56.43;98520.59;4387755;32;34255;-91
2024/01/15 03:10:11;;;;;;;3.42;3.12;;;;;;;0.67;57.47;98507.50;4382239;32;32687;-91
2024/01/15 03:12:39;;;;;;;2.30;2.17;;;;;;;0.74;57.21;98502.09;4378663;32;33219;-91
2024/01/15 03:15:06;;;;;;;2.00;1.90;;;;;;;0.60;57.57;98511.97;4391763;32;34205;-91
2024/01/15 03:17:34;;;;;;;1.08;1.08;;;;;;;0.52;58.10;98511.28;4390142;32;32445;-90
2024/01/15 03:20:03;;;;;;;2.47;2.28;;;;;;;0.50;57.83;98494.91;4382336;32;34013;-90
2024/01/15 03:22:31;;;;;;;2.33;1.40;;;;;;;0.57;57.62;98501.66;4385112;32;32977;-91
2024/01/15 03:24:58;;;;;;;1.67;1.67;;;;;;;0.58;57.12;98492.97;4391837;32;32949;-92
2024/01/15 03:27:26;;;;;;;2.72;2.53;;;;;;;0.73;56.25;98477.00;4376815;32;33849;-92
2024/01/15 03:29:54;;;;;;;1.95;1.85;;;;;;;0.70;56.21;98476.22;4380012;32;33200;-92
2024/01/15 03:32:22;;;;;;;0.85;0.85;;;;;;;0.64;56.64;98466.84;4390688;32;34798;-92
2024/01/15 03:34:52;;;;;;;1.25;1.23;;;;;;;0.63;56.91;98501.50;4379573;32;33873;-93
2024/01/15 03:37:19;;;;;;;1.95;1.85;;;;;;;0.37;57.28;98493.47;4371289;32;32740;-92
2024/01/15 03:39:47;;;;;;;2.80;2.60;;;;;;;0.46;57.12;98516.63;4377884;32;33491;-92
2024/01/15 03:42:16;;;;;;;1.62;1.58;;;;;;;0.39;57.20;98515.09;4391564;32;32570;-91
2024/01/15 03:44:43;;;;;;;9.65;5.25;;;;;;;0.42;57.20;98496.81;4392470;32;34280;-93
2024/01/15 03:47:11;;;;;;;0.70;0.70;;;;;;;0.38;57.03;98500.37;4391662;32;32920;-92
2024/01/15 03:49:41;;;;;;;2.15;1.90;;;;;;;0.45;56.95;98512.34;4374845;32;121840;-92
2024/01/15 03:52:09;;;;;;;4.12;2.87;;;;;;;0.32;57.31;98526.50;4391577;32;32824;-91
2024/01/15 03:54:37;;;;;;;1.52;1.42;;;;;;;0.27;57.69;98507.56;4379519;32;32759;-92
2024/01/15 03:57:05;;;;;;;3.53;3.33;;;;;;;0.29;57.62;98505.81;4391719;32;33475;-92
2024/01/15 03:59:33;;;;;;;1.65;1.55;;;;;;;0.48;57.19;98520.06;4378583;32;32944;-92
2024/01/15 04:02:01;;;;;;;6.95;3.03;;;;;;;0.09;57.53;98520.06;4387367;32;32867;-92
2024/01/15 04:04:36;;;;;;;3.30;3.03;;;;;;;0.02;58.13;98536.66;4379961;32;32644;-91
2024/01/15 04:07:03;;;;;;;3.17;2.97;;;;;;;0.50;57.18;98520.88;4374110;32;33068;-92
2024/01/15 04:09:33;;;;;;;1.10;1.02;;;;;;;0.11;57.73;98513.13;4381730;32;33314;-91
2024/01/15 04:12:00;;;;;;;2.37;2.17;;;;;;;-0.07;58.45;98503.97;4380015;32;34004;-90
2024/01/15 04:14:28;;;;;;;0.47;0.47;;;;;;;-0.10;58.84;98487.62;4381715;32;32848;-90
2024/01/15 04:16:56;;;;;;;0.70;0.70;;;;;;;-0.10;58.66;98487.62;4386118;32;34059;-90
2024/01/15 04:19:24;;;;;;;5.85;5.30;;;;;;;0.06;58.05;98478.63;4389508;32;32929;-90
2024/01/15 04:21:51;;;;;;;2.25;2.15;;;;;;;-0.09;58.85;98473.78;4375448;32;33370;-90
2024/01/15 04:24:20;;;;;;;0.47;0.47;;;;;;;0.09;58.20;98482.88;4389064;32;32640;-91
2024/01/15 04:26:50;;;;;;;5.43;3.75;;;;;;;0.21;57.87;98483.47;4378925;32;33019;-92
2024/01/15 04:29:18;;;;;;;0.77;0.77;;;;;;;0.10;57.60;98475.06;4377773;32;32906;-92
2024/01/15 04:31:47;;;;;;;0.50;0.50;;;;;;;-0.12;58.20;98473.84;4381155;32;33184;-91
2024/01/15 04:34:15;;;;;;;1.35;1.25;;;;;;;0.38;56.85;98482.19;4373777;32;33166;-91
2024/01/15 04:36:45;;;;;;;1.17;1.17;;;;;;;-0.09;57.68;98474.63;4380903;32;32915;-90
2024/01/15 04:39:13;;;;;;;0.55;0.55;;;;;;;-0.13;58.13;98469.53;4393247;32;33009;-91
2024/01/15 04:41:41;;;;;;;2.83;2.65;;;;;;;-0.16;58.19;98469.59;4391681;32;32739;-91
2024/01/15 04:44:09;;;;;;;3.20;3.00;;;;;;;-0.34;58.70;98458.72;4382754;32;33884;-91
2024/01/15 04:46:36;;;;;;;1.60;1.50;;;;;;;-0.22;58.42;98464.56;4369253;32;32632;-91
2024/01/15 04:49:04;;;;;;;4.90;3.55;;;;;;;-0.29;58.84;98456.88;4380017;32;34698;-92
2024/01/15 04:51:34;;;;;;;2.25;2.05;;;;;;;0.01;57.13;98470.09;4382961;32;31742;-91
2024/01/15 04:54:02;;;;;;;4.50;3.65;;;;;;;0.07;57.42;98459.56;4372836;32;32423;-91
2024/01/15 04:56:30;;;;;;;2.25;2.12;;;;;;;-0.24;58.23;98467.16;4387367;32;32992;-91
2024/01/15 04:58:58;;;;;;;3.50;3.25;;;;;;;0.23;56.98;98468.69;4372041;32;32727;-90
2024/01/15 05:01:32;;;;;;;1.40;1.30;;;;;;;-0.16;58.13;98473.03;4389936;32;32983;-90
2024/01/15 05:03:59;;;;;;;0.75;0.75;;;;;;;-0.42;58.98;98481.41;4390141;32;32596;-91
2024/01/15 05:06:28;;;;;;;1.90;1.80;;;;;;;-0.31;58.41;98479.41;4385105;32;33650;-91
2024/01/15 05:09:13;;;;;;;0.30;0.30;;;;;;;-0.40;58.72;98483.94;4382768;32;33537;-91
2024/01/15 05:11:41;;;;;;;1.58;1.48;;;;;;;-0.26;58.22;98484.50;4391142;32;32091;-91
2024/01/15 05:14:08;;;;;;;0.90;0.90;;;;;;;-0.45;58.98;98481.44;4387391;32;33141;-90
2024/01/15 05:16:40;;;;;;;0.73;0.73;;;;;;;-0.21;58.31;98482.66;4384176;32;33294;-92
2024/01/15 05:19:08;;;;;;;1.52;1.42;;;;;;;-0.37;57.97;98489.09;4390091;32;33383;-93
2024/01/15 05:21:36;;;;;;;2.05;1.95;;;;;;;-0.41;58.44;98488.28;4390751;32;32888;-92
2024/01/15 05:24:04;;;;;;;3.13;2.93;;;;;;;-0.64;58.20;98485.28;4391031;32;32436;-92
2024/01/15 05:26:32;;;;;;;1.30;1.30;;;;;;;-0.70;59.36;98481.09;4378416;32;32681;-92
2024/01/15 05:29:00;;;;;;;1.35;1.25;;;;;;;-0.48;58.61;98491.87;4378540;32;33223;-92
2024/01/15 05:31:28;;;;;;;2.83;2.67;;;;;;;-0.53;59.41;98493.69;4356975;32;33432;-92
2024/01/15 05:33:57;;;;;;;1.95;1.85;;;;;;;-0.41;58.58;98496.06;4366325;32;33221;-92
2024/01/15 05:36:25;;;;;;;3.22;2.60;;;;;;;-0.42;59.04;98489.19;4375946;32;32801;-92
2024/01/15 05:38:52;;;;;;;2.28;2.12;;;;;;;-0.34;58.29;98487.25;4383096;32;32830;-90
2024/01/15 05:41:20;;;;;;;6.12;4.90;;;;;;;-0.55;59.10;98472.16;4368688;32;34289;-90
2024/01/15 05:43:48;;;;;;;1.62;1.62;;;;;;;-0.41;58.52;98482.25;4375038;32;33327;-91
2024/01/15 05:46:16;;;;;;;3.25;2.83;;;;;;;-0.50;59.55;98479.84;4373080;32;33215;-91
2024/01/15 05:48:44;;;;;;;3.08;2.87;;;;;;;-0.09;58.12;98484.16;4354034;32;33588;-90
2024/01/15 05:51:12;;;;;;;0.90;0.88;;;;;;;-0.42;58.36;98499.53;4371838;32;32881;-91
2024/01/15 05:53:42;;;;;;;0.88;0.70;;;;;;;-0.42;58.81;98502.13;4374007;32;32854;-90
2024/01/15 05:56:11;;;;;;;0.70;0.70;;;;;;;-0.52;58.99;98505.81;4375340;32;34356;-90
2024/01/15 05:58:38;;;;;;;1.17;1.17;;;;;;;-0.47;58.56;98488.41;4368875;32;32659;-90
2024/01/15 06:01:06;;;;;;;1.83;0.62;;;;;;;-0.42;58.69;98486.59;4367969;32;32084;-89
2024/01/15 06:03:34;;;;;;;1.73;1.62;;;;;;;-0.54;59.03;98474.69;4374640;32;32964;-89
2024/01/15 06:06:02;;;;;;;0.40;0.40;;;;;;;-0.50;58.91;98474.66;4369752;32;33657;-91
2024/01/15 06:08:31;;;;;;;2.45;1.83;;;;;;;-0.44;59.00;98472.78;4374492;32;34118;-91
2024/01/15 06:10:59;;;;;;;3.33;3.12;;;;;;;-0.44;59.21;98477.97;4367570;32;34216;-91
2024/01/15 06:13:28;;;;;;;5.62;3.55;;;;;;;-0.41;59.10;98472.72;4371833;32;35307;-91
2024/01/15 06:15:56;;;;;;;2.47;2.25;;;;;;;-0.43;58.71;98477.06;4374664;32;33176;-91
2024/01/15 06:18:24;;;;;;;1.48;1.48;;;;;;;-0.38;59.45;98477.84;4362878;32;33527;-91
2024/01/15 06:20:52;;;;;;;5.72;4.80;;;;;;;-0.46;59.49;98478.91;4350143;32;32662;-92
2024/01/15 06:23:20;;;;;;;9.20;3.55;;;;;;;0.14;57.20;98481.91;4380871;32;33220;-92
2024/01/15 06:25:48;;;;;;;2.37;2.28;;;;;;;-0.07;57.10;98482.38;4374755;32;33447;-91
2024/01/15 06:28:16;;;;;;;1.17;1.17;;;;;;;-0.38;58.40;98487.34;4375626;32;32613;-92
2024/01/15 06:30:44;;;;;;;0.62;0.62;;;;;;;-0.44;58.96;98477.97;4379731;32;32837;-91
2024/01/15 06:33:12;;;;;;;4.53;2.53;;;;;;;-0.42;58.86;98488.31;4369242;32;32370;-91
2024/01/15 06:35:39;;;;;;;2.75;2.55;;;;;;;-0.44;58.74;98490.94;4367547;32;32746;-91
2024/01/15 06:38:08;;;;;;;8.18;4.03;;;;;;;-0.36;59.54;98480.41;4388151;32;33752;-92
2024/01/15 06:40:36;;;;;;;2.03;1.50;;;;;;;0.00;58.30;98486.56;4361488;32;33684;-90
2024/01/15 06:43:03;;;;;;;4.47;4.03;;;;;;;-0.40;59.09;98492.56;4388264;32;32580;-89
2024/01/15 06:45:31;;;;;;;0.73;0.73;;;;;;;-0.20;59.01;98489.56;4383320;32;33572;-90
2024/01/15 06:47:59;;;;;;;9.00;2.85;;;;;;;-0.21;58.66;98494.78;4372804;32;33474;-89
2024/01/15 06:50:27;;;;;;;1.20;1.20;;;;;;;-0.46;59.90;98504.81;4371245;32;32783;-90
2024/01/15 06:52:54;;;;;;;1.98;1.77;;;;;;;-0.49;60.38;98495.34;4381784;32;33898;-90
2024/01/15 06:55:22;;;;;;;1.17;1.17;;;;;;;-0.25;59.67;98494.00;4389812;32;32886;-89
2024/01/15 06:57:50;;;;;;;1.20;1.20;;;;;;;-0.32;60.36;98498.47;4390336;32;32869;-90
2024/01/15 07:00:19;;;;;;;0.52;0.52;;;;;;;-0.14;59.67;98501.53;4388115;32;32135;-90
2024/01/15 07:02:47;;;;;;;2.05;1.95;;;;;;;-0.21;59.79;98494.78;4361861;32;32467;-89
2024/01/15 07:05:15;;;;;;;1.98;1.80;;;;;;;-0.14;59.96;98493.75;4382005;32;33463;-91
2024/01/15 07:07:42;;;;;;;0.50;0.50;;;;;;;-0.08;60.17;98498.84;4383328;32;34734;-91
2024/01/15 07:10:11;;;;;;;2.83;1.95;;;;;;;0.06;59.82;98504.56;4382074;32;33190;-91
2024/01/15 07:12:42;;;;;;;2.47;2.05;;;;;;;-0.01;60.07;98503.00;4382407;32;33155;-90
2024/01/15 07:15:10;;;;;;;5.80;4.62;;;;;;;0.04;60.40;98501.16;4376249;32;33378;-92
2024/01/15 07:17:39;;;;;;;4.68;4.28;;;;;;;-0.01;60.33;98513.38;4389271;32;34610;-91
2024/01/15 07:20:10;;;;;;;4.57;3.97;;;;;;;0.39;59.36;98512.50;4389312;32;32070;-89
2024/01/15 07:22:38;;;;;;;14.27;7.78;;;;;;;0.24;59.58;98524.94;4389759;32;32977;-89
2024/01/15 07:25:06;;;;;;;2.55;2.42;;;;;;;0.16;60.58;98513.00;4382728;32;34727;-89
2024/01/15 07:27:36;;;;;;;2.67;2.47;;;;;;;0.48;59.01;98520.91;4381696;32;34227;-89
2024/01/15 07:30:13;;;;;;;1.50;1.48;;;;;;;-0.05;61.67;98522.97;4370055;32;32154;-89
2024/01/15 07:32:41;;;;;;;1.27;1.27;;;;;;;0.36;60.04;98517.75;4372392;32;32626;-89
2024/01/15 07:35:10;;;;;;;5.53;5.12;;;;;;;0.10;60.54;98526.97;4357132;32;32515;-89
2024/01/15 07:37:38;;;;;;;4.72;4.30;;;;;;;0.18;60.36;98527.66;4383945;32;34691;-90
2024/01/15 07:40:08;;;;;;;3.85;2.87;;;;;;;0.24;60.26;98524.94;4382506;32;33502;-90
2024/01/15 07:42:36;;;;;;;2.78;2.58;;;;;;;0.57;59.51;98517.25;4369428;32;32239;-90
2024/01/15 07:45:04;;;;;;;16.35;2.90;;;;;;;0.32;59.90;98527.34;4381516;32;33854;-90
2024/01/15 07:47:32;;;;;;;1.55;1.50;;;;;;;0.42;59.81;98539.22;4380428;32;33718;-90
2024/01/15 07:50:01;;;;;;;2.72;2.62;;;;;;;0.65;58.54;98524.84;4383535;32;32258;-90
2024/01/15 07:52:32;;;;;;;3.70;3.47;;;;;;;0.53;59.17;98520.81;4381429;32;34038;-90
2024/01/15 07:55:00;;;;;;;0.60;0.60;;;;;;;0.44;59.12;98515.84;4365553;32;32990;-90
2024/01/15 07:57:29;;;;;;;6.78;5.07;;;;;;;0.39;59.56;98518.53;4368419;32;33726;-90
2024/01/15 07:59:56;;;;;;;3.28;3.00;;;;;;;0.46;59.61;98527.88;4366436;32;33448;-89
2024/01/15 08:02:25;;;;;;;3.17;2.37;;;;;;;0.49;59.42;98520.03;4370865;32;35423;-91
2024/01/15 08:04:53;;;;;;;0.95;0.95;;;;;;;0.50;59.19;98532.09;4383699;32;33665;-90
2024/01/15 08:07:20;;;;;;;2.37;2.28;;;;;;;0.64;59.64;98517.94;4371434;32;31885;-90
2024/01/15 08:09:48;;;;;;;10.00;8.98;;;;;;;0.76;59.55;98521.09;4379098;32;32154;-90
2024/01/15 08:12:17;;;;;;;3.30;3.10;;;;;;;0.91;58.81;98527.66;4369529;32;35723;-89
2024/01/15 08:14:45;;;;;;;13.62;3.47;;;;;;;0.77;59.66;98535.81;4381153;32;33942;-90
2024/01/15 08:17:13;;;;;;;4.25;3.92;;;;;;;0.66;60.32;98532.59;4381261;32;34607;-89
2024/01/15 08:19:42;;;;;;;3.12;2.83;;;;;;;0.67;60.69;98536.91;4381123;32;33171;-90
2024/01/15 08:22:10;;;;;;;3.05;2.78;;;;;;;0.92;61.42;98538.91;4366789;32;32032;-92
2024/01/15 08:24:37;;;;;;;1.05;1.05;;;;;;;1.37;61.14;98526.44;4378847;32;32691;-90
2024/01/15 08:27:06;;;;;;;1.00;1.00;;;;;;;1.44;61.65;98532.34;4379212;32;34028;-90
2024/01/15 08:29:34;;;;;;;2.42;1.52;;;;;;;1.51;61.44;98526.91;4377781;32;33364;-90
2024/01/15 08:32:02;;;;;;;0.13;0.13;;;;;;;1.65;60.87;98529.16;4378912;32;33585;-90
2024/01/15 08:34:31;;;;;;;0.40;0.40;;;;;;;1.75;60.92;98527.97;4377227;32;35097;-89
2024/01/15 08:36:58;;;;;;;2.17;2.08;;;;;;;2.03;59.92;98528.03;4377505;32;32576;-89
2024/01/15 08:39:26;;;;;;;0.77;0.77;;;;;;;2.04;59.18;98531.50;4375161;32;32568;-90
2024/01/15 08:41:55;;;;;;;1.75;1.23;;;;;;;2.30;58.43;98523.75;4373672;32;33183;-90
2024/01/15 08:44:23;;;;;;;3.58;3.28;;;;;;;2.23;58.11;98513.56;4370529;32;32307;-90
2024/01/15 08:46:51;;;;;;;13.27;3.37;;;;;;;2.44;57.50;98525.09;4376963;32;34093;-90
2024/01/15 08:49:19;;;;;;;1.20;0.98;;;;;;;2.60;57.23;98528.06;4377784;32;33523;-90
2024/01/15 08:51:47;;;;;;;0.17;0.17;;;;;;;2.88;56.12;98533.22;4385135;32;32474;-90
2024/01/15 08:54:15;;;;;;;1.98;1.83;;;;;;;3.03;55.19;98528.34;4381857;32;34726;-90
2024/01/15 08:56:44;;;;;;;0.73;0.73;;;;;;;3.95;54.27;98524.28;4380465;32;33450;-90
2024/01/15 08:59:11;;;;;;;0.70;0.70;;;;;;;4.22;53.34;98524.97;4387435;32;32131;-90
2024/01/15 09:01:39;;;;;;;0.40;0.40;;;;;;;4.26;52.94;98521.34;4387527;32;34009;-90
2024/01/15 09:04:11;;;;;;;0.93;0.93;;;;;;;4.42;52.23;98522.47;4381669;32;32975;-90
2024/01/15 09:06:39;;;;;;;1.45;1.45;;;;;;;4.50;51.66;98527.38;4381817;32;33368;-91
2024/01/15 09:09:06;;;;;;;0.88;0.88;;;;;;;4.71;51.14;98523.06;4366602;32;33025;-91
2024/01/15 09:11:35;;;;;;;0.45;0.45;;;;;;;4.43;51.66;98526.75;4368888;32;34197;-91
2024/01/15 09:14:03;;;;;;;2.50;2.30;;;;;;;3.98;52.95;98531.97;4379654;32;34365;-90
2024/01/15 09:16:30;;;;;;;1.17;1.10;;;;;;;4.33;51.57;98522.81;4386215;32;33838;-91
2024/01/15 09:18:58;;;;;;;0.77;0.77;;;;;;;4.53;50.52;98516.78;4387648;32;34465;-91
2024/01/15 09:21:26;;;;;;;0.85;0.85;;;;;;;4.76;50.61;98514.13;4386543;32;32657;-91
2024/01/15 09:23:54;;;;;;;0.30;0.30;;;;;;;4.84;49.50;98522.50;4381354;32;33553;-91
2024/01/15 09:26:22;;;;;;;1.05;1.05;;;;;;;5.19;49.13;98517.56;4375520;32;33373;-91
2024/01/15 09:28:49;;;;;;;0.40;0.40;;;;;;;5.19;48.72;98517.56;4376647;32;33540;-91
2024/01/15 09:31:18;;;;;;;1.10;1.10;;;;;;;5.58;48.34;98498.44;4374706;32;32808;-91
2024/01/15 09:33:46;;;;;;;0.45;0.45;;;;;;;5.78;47.83;98500.16;4381134;32;32747;-89
2024/01/15 09:36:14;;;;;;;1.20;1.20;;;;;;;5.92;47.57;98503.03;4375119;32;32601;-92
2024/01/15 09:38:42;;;;;;;0.20;0.20;;;;;;;6.13;46.96;98491.56;4369785;32;32221;-90
2024/01/15 09:41:10;;;;;;;0.75;0.75;;;;;;;6.18;45.96;98496.59;4375163;32;33122;-90
2024/01/15 09:43:38;;;;;;;1.60;1.50;;;;;;;6.11;45.77;98490.78;4366993;32;34846;-90
2024/01/15 09:46:05;;;;;;;1.05;0.95;;;;;;;5.94;46.31;98485.50;4358148;32;34205;-90
2024/01/15 09:48:34;;;;;;;2.10;1.50;;;;;;;6.17;46.05;98481.78;4373718;32;32599;-90
2024/01/15 09:51:02;;;;;;;0.47;0.47;;;;;;;6.30;45.76;98472.41;4371658;32;33453;-92
2024/01/15 09:53:30;;;;;;;2.05;1.37;;;;;;;6.24;45.96;98472.72;4373108;32;34158;-90
2024/01/15 09:55:59;;;;;;;0.30;0.30;;;;;;;6.49;45.67;98455.81;4379496;32;33960;-90
2024/01/15 09:58:29;;;;;;;0.28;0.28;;;;;;;6.79;44.80;98462.19;4360929;32;32062;-90
2024/01/15 10:00:57;;;;;;;3.90;1.92;;;;;;;7.08;44.38;98454.63;4357524;32;32908;-90
2024/01/15 10:03:25;;;;;;;0.25;0.20;;;;;;;6.91;44.02;98458.94;4375356;32;34254;-90
2024/01/15 10:05:53;;;;;;;0.35;0.32;;;;;;;7.47;42.97;98450.88;4360429;32;33222;-90
2024/01/15 10:08:22;;;;;;;1.45;1.35;;;;;;;7.63;42.47;98441.22;4365289;32;32493;-90
2024/01/15 10:10:50;;;;;;;1.83;1.37;;;;;;;7.28;44.04;98446.56;4360514;32;33957;-90
2024/01/15 10:13:17;;;;;;;0.10;0.10;;;;;;;7.67;41.14;98442.78;4372023;32;33271;-91
2024/01/15 10:15:46;;;;;;;0.50;0.50;;;;;;;7.38;42.76;98441.69;4352260;32;34194;-90
2024/01/15 10:18:15;;;;;;;1.55;0.88;;;;;;;7.64;42.43;98435.91;4370674;32;33924;-90
2024/01/15 10:20:43;;;;;;;0.93;0.85;;;;;;;7.81;41.69;98428.88;4358934;32;33628;-90
2024/01/15 10:23:36;;;;;;;0.70;0.65;;;;;;;7.59;41.91;98416.91;4385617;32;32971;-90
2024/01/15 10:26:04;;;;;;;0.47;0.37;;;;;;;8.16;40.66;98413.78;4359942;32;34775;-90
2024/01/15 10:28:32;;;;;;;0.95;0.90;;;;;;;7.80;41.73;98417.53;4375396;32;32181;-90
2024/01/15 10:31:00;;;;;;;0.10;0.10;;;;;;;8.50;39.45;98414.53;4387308;32;33077;-90
2024/01/15 10:33:28;;;;;;;0.57;0.57;;;;;;;8.52;38.96;98410.91;4387781;32;33076;-90
2024/01/15 10:35:59;;;;;;;0.98;0.98;;;;;;;8.70;38.58;98404.59;4384912;32;33172;-90
2024/01/15 10:38:27;;;;;;;0.28;0.28;;;;;;;8.55;38.96;98396.75;4362630;32;32393;-90
2024/01/15 10:40:56;;;;;;;1.45;0.62;;;;;;;8.72;38.11;98404.47;4371607;32;32132;-90
2024/01/15 10:43:24;;;;;;;0.40;0.40;;;;;;;8.11;39.68;98408.78;4389904;32;34110;-90
2024/01/15 10:45:56;;;;;;;0.20;0.20;;;;;;;8.37;38.93;98404.75;4390175;32;33061;-90
2024/01/15 10:48:24;;;;;;;0.52;0.52;;;;;;;8.40;38.70;98408.97;4372516;32;32336;-92
2024/01/15 10:50:51;;;;;;;0.40;0.40;;;;;;;8.57;38.65;98408.84;4375857;32;33819;-90
2024/01/15 10:53:20;;;;;;;1.65;0.90;;;;;;;8.72;38.09;98407.13;4382025;32;33637;-91
2024/01/15 10:55:51;;;;;;;0.10;0.10;;;;;;;8.48;38.15;98395.38;4387878;32;33046;-90
2024/01/15 10:58:23;;;;;;;0.50;0.50;;;;;;;8.75;37.92;98392.94;4359752;32;34382;-90
2024/01/15 11:00:50;;;;;;;0.10;0.10;;;;;;;9.39;36.26;98397.81;4383067;32;33449;-90
2024/01/15 11:03:18;;;;;;;0.00;0.00;;;;;;;9.06;37.14;98395.44;4374070;32;33179;-91
2024/01/15 11:05:47;;;;;;;4.57;0.32;;;;;;;9.08;37.33;98392.72;4386798;32;33386;-90
2024/01/15 11:08:18;;;;;;;2.55;2.33;;;;;;;9.16;37.19;98398.34;4388853;32;33408;-90
2024/01/15 11:10:49;;;;;;;0.10;0.10;;;;;;;9.25;37.00;98400.44;4377272;32;33848;-90
2024/01/15 11:13:32;;;;;;;0.20;0.20;;;;;;;9.32;37.00;98396.50;4390001;32;33506;-90
2024/01/15 11:16:02;;;;;;;0.00;0.00;;;;;;;9.51;35.82;98400.66;4383405;32;32611;-91
2024/01/15 11:18:36;;;;;;;1.35;1.25;;;;;;;9.46;36.05;98385.13;4374768;32;32093;-90
2024/01/15 11:21:17;;;;;;;0.95;0.95;;;;;;;8.68;38.62;98395.06;4367852;32;33081;-91
2024/01/15 11:23:46;;;;;;;0.05;0.05;;;;;;;8.63;38.42;98397.12;4357480;32;33294;-91
2024/01/15 11:26:38;;;;;;;5.05;0.73;;;;;;;9.34;36.64;98388.50;4364002;32;33079;-91
2024/01/15 11:29:26;;;;;;;1.75;1.45;;;;;;;8.94;38.43;98391.75;4386676;32;33024;-91
2024/01/15 11:32:04;;;;;;;0.15;0.15;;;;;;;9.06;37.51;98389.31;4356427;32;33459;-90
2024/01/15 11:35:02;;;;;;;0.52;0.52;;;;;;;9.20;36.73;98392.81;4357180;32;33331;-91
2024/01/15 11:37:50;;;;;;;0.20;0.20;;;;;;;9.29;36.51;98382.66;4373444;32;33068;-91
2024/01/15 11:40:23;;;;;;;0.85;0.85;;;;;;;8.40;38.16;98375.66;4363965;32;32177;-91
2024/01/15 11:42:52;;;;;;;0.47;0.47;;;;;;;8.69;38.43;98391.53;4371452;32;33265;-90
2024/01/15 11:45:22;;;;;;;0.25;0.25;;;;;;;8.64;38.07;98383.03;4373902;32;33469;-91
2024/01/15 11:48:05;;;;;;;0.57;0.57;;;;;;;8.61;38.43;98377.97;4362021;32;33046;-91